Time;durP1;ratioP1;P1;durP2;ratioP2;P2;SDS_P1;SDS_P2;PMS_P1;PMS_P2;Temp;Humidity;BMP_temperature;BMP_pressure;BME280_temperature;BME280_humidity;BME280_pressure;Samples;Min_cycle;Max_cycle;Signal;HPM_P1;HPM_P2
2023/09/15 00:04:15;;;;;;;;;;;13.80;99.90;;;;;;6712437;88;20074;-78
2023/09/15 00:14:16;;;;;;;;;;;13.80;99.90;;;;;;6710998;88;20301;-78
2023/09/15 00:24:16;;;;;;;;;;;13.50;99.90;;;;;;6715926;88;20131;-79
2023/09/15 00:34:17;;;;;;;;;;;13.40;99.90;;;;;;6713632;88;20878;-76
2023/09/15 00:44:17;;;;;;;;;;;13.40;99.90;;;;;;6694903;88;20736;-77
2023/09/15 00:54:18;;;;;;;;;;;13.40;99.90;;;;;;6696422;88;20086;-77
2023/09/15 01:04:19;;;;;;;;;;;13.20;99.90;;;;;;6696828;88;20326;-78
2023/09/15 01:14:19;;;;;;;;;;;13.20;99.90;;;;;;6694183;88;20089;-77
2023/09/15 01:24:44;;;;;;;;;;;13.10;99.90;;;;;;6694593;88;20066;-76
2023/09/15 01:34:49;;;;;;;;;;;13.00;99.90;;;;;;6703643;88;20128;-76
2023/09/15 01:44:49;;;;;;;;;;;13.00;99.90;;;;;;6709590;88;20482;-76
2023/09/15 01:54:53;;;;;;;;;;;12.80;99.90;;;;;;6707704;88;20106;-78
2023/09/15 02:04:53;;;;;;;;;;;12.70;99.90;;;;;;6709669;88;20084;-78
2023/09/15 02:14:54;;;;;;;;;;;12.60;99.90;;;;;;6703299;88;20206;-77
2023/09/15 02:24:54;;;;;;;;;;;12.50;99.90;;;;;;6707200;88;20082;-77
2023/09/15 02:34:55;;;;;;;;;;;12.50;99.90;;;;;;6699996;88;20078;-77
2023/09/15 02:44:55;;;;;;;;;;;12.50;99.90;;;;;;6697082;88;20067;-78
2023/09/15 02:54:56;;;;;;;;;;;12.40;99.90;;;;;;6696513;88;20651;-78
2023/09/15 03:04:56;;;;;;;;;;;12.20;99.90;;;;;;6696041;88;20092;-76
2023/09/15 03:14:56;;;;;;;;;;;12.20;99.90;;;;;;6695580;88;20505;-76
2023/09/15 03:24:57;;;;;;;;;;;12.10;99.90;;;;;;6697546;88;20055;-78
2023/09/15 03:34:57;;;;;;;;;;;12.10;99.90;;;;;;6698242;88;20126;-77
2023/09/15 03:44:58;;;;;;;;;;;11.90;99.90;;;;;;6703100;88;20079;-76
2023/09/15 03:55:00;;;;;;;;;;;11.80;99.90;;;;;;6699009;88;20594;-77
2023/09/15 04:05:01;;;;;;;;;;;11.80;99.90;;;;;;6695518;88;20147;-77
2023/09/15 04:15:01;;;;;;;;;;;11.70;99.90;;;;;;6699463;88;20077;-76
2023/09/15 04:25:02;;;;;;;;;;;11.50;99.90;;;;;;6696264;88;20812;-76
2023/09/15 04:35:05;;;;;;;;;;;11.40;99.90;;;;;;6692777;88;20114;-77
2023/09/15 04:45:06;;;;;;;;;;;11.30;99.90;;;;;;6693952;88;20051;-77
2023/09/15 04:55:06;;;;;;;;;;;11.20;99.90;;;;;;6695711;88;20488;-75
2023/09/15 05:05:07;;;;;;;;;;;11.40;99.90;;;;;;6696644;88;20138;-75
2023/09/15 05:15:07;;;;;;;;;;;11.40;99.90;;;;;;6687952;88;20172;-77
2023/09/15 05:25:08;;;;;;;;;;;11.30;99.90;;;;;;6689247;88;20108;-76
2023/09/15 05:35:10;;;;;;;;;;;11.40;99.90;;;;;;6700794;88;20527;-78
2023/09/15 05:45:11;;;;;;;;;;;11.40;99.90;;;;;;6702211;88;20179;-78
2023/09/15 05:55:11;;;;;;;;;;;11.60;99.90;;;;;;6713741;88;20604;-79
2023/09/15 06:05:17;;;;;;;;;;;11.80;99.90;;;;;;6707479;88;20563;-77
2023/09/15 06:15:18;;;;;;;;;;;12.10;99.90;;;;;;6707625;88;20740;-76
2023/09/15 06:25:18;;;;;;;;;;;12.30;99.90;;;;;;6707034;88;20115;-76
2023/09/15 06:35:19;;;;;;;;;;;12.70;99.90;;;;;;6712992;88;20102;-75
2023/09/15 06:45:19;;;;;;;;;;;13.10;99.90;;;;;;6711847;88;20086;-79
2023/09/15 06:55:20;;;;;;;;;;;13.70;99.90;;;;;;6717991;88;20076;-78
2023/09/15 07:05:20;;;;;;;;;;;14.00;99.90;;;;;;6726776;88;20058;-79
2023/09/15 07:15:21;;;;;;;;;;;14.60;99.90;;;;;;6715084;88;20567;-79
2023/09/15 07:25:21;;;;;;;;;;;15.10;99.90;;;;;;6712414;88;20067;-78
2023/09/15 07:35:22;;;;;;;;;;;15.20;99.90;;;;;;6712491;88;20615;-77
2023/09/15 07:45:23;;;;;;;;;;;15.60;99.90;;;;;;6714260;88;20071;-78
2023/09/15 07:55:24;;;;;;;;;;;16.10;99.90;;;;;;6713835;88;20098;-79
2023/09/15 08:05:24;;;;;;;;;;;16.70;99.90;;;;;;6714327;88;20194;-77
2023/09/15 08:15:25;;;;;;;;;;;17.00;99.90;;;;;;6714616;88;20133;-78
2023/09/15 08:25:25;;;;;;;;;;;17.50;99.90;;;;;;6716772;88;20110;-79
2023/09/15 08:35:26;;;;;;;;;;;17.90;99.90;;;;;;6713442;88;20059;-79
2023/09/15 08:45:26;;;;;;;;;;;18.70;99.90;;;;;;6716396;88;20539;-78
2023/09/15 08:55:28;;;;;;;;;;;19.10;99.90;;;;;;6720195;88;20067;-79
2023/09/15 09:05:29;;;;;;;;;;;19.40;99.90;;;;;;6717112;88;20116;-79
2023/09/15 09:15:32;;;;;;;;;;;19.50;99.90;;;;;;6711238;88;20068;-79
2023/09/15 09:25:34;;;;;;;;;;;21.10;99.90;;;;;;6711506;88;20069;-78
2023/09/15 09:35:34;;;;;;;;;;;20.70;99.90;;;;;;6716103;88;20056;-81
2023/09/15 09:45:34;;;;;;;;;;;20.90;99.90;;;;;;6711827;88;20071;-79
2023/09/15 09:55:35;;;;;;;;;;;21.80;99.90;;;;;;6712460;88;20083;-82
2023/09/15 10:05:37;;;;;;;;;;;22.10;99.90;;;;;;6710020;88;20277;-80
2023/09/15 10:15:40;;;;;;;;;;;23.60;99.90;;;;;;6728224;88;20147;-79
2023/09/15 10:25:47;;;;;;;;;;;23.30;99.20;;;;;;6726787;88;20048;-79
2023/09/15 10:35:48;;;;;;;;;;;24.40;98.80;;;;;;6719152;88;20080;-81
2023/09/15 10:45:52;;;;;;;;;;;23.90;97.50;;;;;;6709600;88;20739;-78
2023/09/15 10:55:55;;;;;;;;;;;25.60;96.00;;;;;;6712364;88;20061;-80
2023/09/15 11:05:55;;;;;;;;;;;25.90;96.00;;;;;;6712697;88;20109;-80
2023/09/15 11:15:56;;;;;;;;;;;25.90;93.30;;;;;;6709325;88;20077;-80
2023/09/15 11:26:01;;;;;;;;;;;26.30;92.30;;;;;;6714136;88;20663;-81
2023/09/15 11:46:43;;;;;;;;;;;27.40;90.80;;;;;;6740671;88;20068;-78
2023/09/15 11:56:44;;;;;;;;;;;28.00;91.00;;;;;;6739637;88;20058;-79
2023/09/15 12:06:45;;;;;;;;;;;28.00;90.70;;;;;;6744170;88;20049;-80
2023/09/15 12:16:46;;;;;;;;;;;27.80;91.00;;;;;;6745914;88;20098;-81
2023/09/15 12:26:50;;;;;;;;;;;27.80;90.50;;;;;;6752721;88;20034;-81
2023/09/15 12:36:55;;;;;;;;;;;27.40;90.60;;;;;;6751747;88;20145;-79
2023/09/15 12:46:57;;;;;;;;;;;26.90;90.80;;;;;;6742156;88;20104;-81
2023/09/15 12:56:58;;;;;;;;;;;28.00;90.80;;;;;;6746995;88;20053;-80
2023/09/15 13:07:00;;;;;;;;;;;28.60;89.70;;;;;;6745324;88;20071;-80
2023/09/15 13:17:00;;;;;;;;;;;28.50;89.60;;;;;;6747652;88;20088;-80
2023/09/15 13:27:02;;;;;;;;;;;28.20;89.50;;;;;;6743407;88;20062;-79
2023/09/15 13:37:03;;;;;;;;;;;29.50;88.50;;;;;;6744643;88;20081;-80
2023/09/15 13:47:04;;;;;;;;;;;29.30;89.30;;;;;;6743506;88;20081;-80
2023/09/15 13:57:05;;;;;;;;;;;28.90;88.90;;;;;;6742319;88;20571;-80
2023/09/15 14:07:06;;;;;;;;;;;28.30;89.30;;;;;;6738521;88;20592;-80
2023/09/15 14:17:07;;;;;;;;;;;27.80;90.20;;;;;;6745676;88;20058;-80
2023/09/15 14:27:08;;;;;;;;;;;28.20;89.50;;;;;;6741741;88;20124;-80
2023/09/15 14:37:09;;;;;;;;;;;27.80;90.20;;;;;;6752420;88;20066;-80
2023/09/15 14:47:09;;;;;;;;;;;27.60;91.10;;;;;;6746987;88;20062;-80
2023/09/15 14:57:10;;;;;;;;;;;26.70;91.70;;;;;;6751594;88;20067;-79
2023/09/15 15:07:11;;;;;;;;;;;25.20;93.30;;;;;;6735419;88;20084;-81
2023/09/15 15:17:12;;;;;;;;;;;25.40;93.70;;;;;;6737339;88;20065;-79
2023/09/15 15:27:12;;;;;;;;;;;25.30;94.10;;;;;;6740348;88;20053;-79
2023/09/15 15:37:13;;;;;;;;;;;25.40;94.20;;;;;;6738029;88;20096;-78
2023/09/15 15:47:13;;;;;;;;;;;24.90;94.60;;;;;;6736845;88;20098;-79
2023/09/15 15:57:14;;;;;;;;;;;25.20;94.20;;;;;;6741084;88;20083;-79
2023/09/15 16:07:14;;;;;;;;;;;24.70;95.10;;;;;;6741218;88;20471;-79
2023/09/15 16:17:15;;;;;;;;;;;24.90;95.00;;;;;;6739340;88;20051;-79
2023/09/15 16:27:15;;;;;;;;;;;24.80;95.60;;;;;;6741101;88;20058;-78
2023/09/15 16:37:16;;;;;;;;;;;24.50;96.00;;;;;;6734966;88;20544;-78
2023/09/15 16:47:17;;;;;;;;;;;24.20;96.80;;;;;;6730940;88;20099;-79
2023/09/15 16:57:17;;;;;;;;;;;24.00;97.80;;;;;;6732442;88;20086;-78
2023/09/15 17:07:18;;;;;;;;;;;23.70;98.70;;;;;;6735680;88;20058;-80
2023/09/15 17:17:18;;;;;;;;;;;23.40;99.90;;;;;;6758299;88;20031;-80
2023/09/15 17:27:19;;;;;;;;;;;23.00;99.90;;;;;;6751165;88;20021;-82
2023/09/15 17:48:00;;;;;;;;;;;22.50;99.90;;;;;;6714206;88;20533;-76
2023/09/15 17:58:02;;;;;;;;;;;22.20;99.90;;;;;;6717513;88;20091;-76
2023/09/15 18:08:03;;;;;;;;;;;22.10;99.90;;;;;;6722379;88;20049;-79
2023/09/15 18:18:04;;;;;;;;;;;21.60;99.90;;;;;;6710854;88;20566;-78
2023/09/15 18:28:06;;;;;;;;;;;21.40;99.90;;;;;;6710918;88;21722;-79
2023/09/15 18:38:07;;;;;;;;;;;21.10;99.90;;;;;;6710714;88;20494;-77
2023/09/15 18:48:08;;;;;;;;;;;20.90;99.90;;;;;;6712894;88;20066;-78
2023/09/15 18:58:10;;;;;;;;;;;20.70;99.90;;;;;;6711427;88;20135;-77
2023/09/15 19:08:10;;;;;;;;;;;20.60;99.90;;;;;;6718020;88;20047;-77
2023/09/15 19:18:11;;;;;;;;;;;20.70;99.90;;;;;;6722322;88;20555;-77
2023/09/15 19:28:11;;;;;;;;;;;20.40;99.90;;;;;;6723778;88;20224;-78
2023/09/15 19:38:12;;;;;;;;;;;20.20;99.90;;;;;;6721909;88;20090;-78
2023/09/15 19:48:12;;;;;;;;;;;20.00;99.90;;;;;;6723306;88;20577;-78
2023/09/15 19:58:14;;;;;;;;;;;19.90;99.90;;;;;;6714208;88;20501;-78
2023/09/15 20:08:14;;;;;;;;;;;19.90;99.90;;;;;;6715235;88;20062;-78
2023/09/15 20:18:15;;;;;;;;;;;19.90;99.90;;;;;;6718629;88;20070;-77
2023/09/15 20:28:16;;;;;;;;;;;20.00;99.90;;;;;;6726892;88;20079;-78
2023/09/15 20:38:17;;;;;;;;;;;20.00;99.90;;;;;;6720289;88;20193;-78
2023/09/15 20:48:17;;;;;;;;;;;19.90;99.90;;;;;;6726664;88;20055;-78
2023/09/15 20:58:18;;;;;;;;;;;19.90;99.90;;;;;;6713441;88;20554;-77
2023/09/15 21:08:18;;;;;;;;;;;19.90;99.90;;;;;;6714443;88;20105;-76
2023/09/15 21:18:19;;;;;;;;;;;19.90;99.90;;;;;;6711687;88;20578;-77
2023/09/15 21:28:19;;;;;;;;;;;19.70;99.90;;;;;;6710204;88;20072;-76
2023/09/15 21:38:20;;;;;;;;;;;19.50;99.90;;;;;;6708659;88;20124;-77
2023/09/15 21:48:23;;;;;;;;;;;19.00;99.90;;;;;;6708233;88;20047;-77
2023/09/15 21:58:23;;;;;;;;;;;18.70;99.90;;;;;;6710139;88;20051;-77
2023/09/15 22:08:24;;;;;;;;;;;18.40;99.90;;;;;;6709981;88;20527;-76
2023/09/15 22:18:24;;;;;;;;;;;18.10;99.90;;;;;;6707907;88;20588;-77
2023/09/15 22:28:28;;;;;;;;;;;17.90;99.90;;;;;;6713044;88;20089;-77
2023/09/15 22:38:35;;;;;;;;;;;17.80;99.90;;;;;;6711369;88;20136;-77
2023/09/15 22:48:36;;;;;;;;;;;17.70;99.90;;;;;;6709307;88;20058;-77
2023/09/15 22:58:36;;;;;;;;;;;17.60;99.90;;;;;;6709980;88;20085;-79
2023/09/15 23:08:37;;;;;;;;;;;17.50;99.90;;;;;;6709316;88;20194;-76
2023/09/15 23:18:37;;;;;;;;;;;17.40;99.90;;;;;;6709803;88;20549;-76
2023/09/15 23:28:40;;;;;;;;;;;17.30;99.90;;;;;;6709309;88;20147;-76
2023/09/15 23:38:41;;;;;;;;;;;17.20;99.90;;;;;;6711943;77;20881;-76
2023/09/15 23:48:41;;;;;;;;;;;17.10;99.90;;;;;;6700206;88;20213;-76
2023/09/15 23:58:42;;;;;;;;;;;16.90;99.90;;;;;;6698727;88;20229;-76
